KFSM

Fort Smith Regional Airport

Fort Smith, Arkansas, USA
METAR KFSM 201253Z 04006KT 10SM OVC025 07/02 A3001 RMK AO2 SLP161 T00670017
Observed Flight Rules
Jan-20 @ 12:53 UTC (20 minutes ago) Marginal Visual Flight Rules
Wind Visibility Clouds
40° at 6 knots 10 miles
  • Overcast at 2,500' AGL
Temperatures Readings
Current 7°C / 45°F
Dewpoint 2°C / 36°F
Humidity 71%
Altimeter 30.01" Hg
Pressure 1016.1 hPa
Elevation 140
METAR KFSM 201253Z 04006KT 10SM OVC025 07/02 A3001 RMK AO2 SLP161 T00670017
Observed Flight Rules
Jan-20 @ 12:53 UTC
(20 minutes ago)
MVFR
Wind Visibility
40° at 6 knots 10 miles
Clouds
  • Overcast at 2,500' AGL
Temperature Dewpoint
7°C / 45°F 2°C / 36°F
Humidity Altimeter Pressure
71% 30.01" Hg 1016.1 hPa